Worthing, Texas
Current Conditions -  °F | °C
As of 10:15 AM on Tuesday 21 Oct 2014 (Local Time) from K66R Reporting Station
Clear Clear  
Wind Chill: 71°   Ceiling: Unl
Heat Index: 71°   Visibility: 10mi
Dew Point: 59°   Wind: 6mph
Humidity: 66%   Direction: 80°E
Pressure: 30.08"   Gusts: NA
Location:  29.3984°N, 96.8256°W
Report Text: K66R 211515Z AUTO 08005KT 10SM CLR 22/15 A3008 RMK AO2 T02150149
Loading
Personal Weather Stations






























Interactive Weather Map
Tropical Storm Tracking
New forecast layout! Learn more

10-Day Weather Forecast

Advertisements
Track Severe Weather on mobile